createdAt,value
2018-08-07T00:00:13.560Z,99.90
2018-08-07T00:02:42.481Z,99.90
2018-08-07T00:05:11.385Z,99.90
2018-08-07T00:07:40.257Z,99.90
2018-08-07T00:10:12.503Z,99.90
2018-08-07T00:12:41.364Z,99.90
2018-08-07T00:15:11.447Z,99.90
2018-08-07T00:17:40.412Z,99.90
2018-08-07T00:20:10.954Z,99.90
2018-08-07T00:22:39.844Z,99.90
2018-08-07T00:25:09.861Z,99.90
2018-08-07T00:27:39.172Z,99.90
2018-08-07T00:30:10.033Z,99.90
2018-08-07T00:32:39.059Z,99.90
2018-08-07T00:35:12.400Z,99.90
2018-08-07T00:37:41.796Z,99.90
2018-08-07T00:40:12.935Z,99.90
2018-08-07T00:42:42.565Z,99.90
2018-08-07T00:45:18.452Z,99.90
2018-08-07T00:47:47.429Z,99.90
2018-08-07T00:50:17.917Z,99.90
2018-08-07T00:52:47.428Z,99.90
2018-08-07T00:55:17.219Z,99.90
2018-08-07T00:57:46.661Z,99.90
2018-08-07T01:00:15.708Z,99.90
2018-08-07T01:02:44.581Z,99.90
2018-08-07T01:05:15.066Z,99.90
2018-08-07T01:07:43.988Z,99.90
2018-08-07T01:10:14.500Z,99.90
2018-08-07T01:12:43.436Z,99.90
2018-08-07T01:15:14.629Z,99.90
2018-08-07T01:17:44.031Z,99.90
2018-08-07T01:20:15.914Z,99.90
2018-08-07T01:22:45.139Z,99.90
2018-08-07T01:25:21.148Z,99.90
2018-08-07T01:27:50.065Z,99.90
2018-08-07T01:30:24.764Z,99.90
2018-08-07T01:32:54.295Z,99.90
2018-08-07T01:35:23.479Z,99.90
2018-08-07T01:37:52.352Z,99.90
2018-08-07T01:40:21.205Z,99.90
2018-08-07T01:42:50.105Z,99.90
2018-08-07T01:45:18.984Z,99.90
2018-08-07T01:50:16.608Z,99.90
2018-08-07T01:52:45.484Z,99.90
2018-08-07T01:55:26.487Z,99.90
2018-08-07T01:57:55.380Z,99.90
2018-08-07T02:00:24.252Z,99.90
2018-08-07T02:02:53.231Z,99.90
2018-08-07T02:05:22.088Z,99.90
2018-08-07T02:07:50.956Z,99.90
2018-08-07T02:10:20.024Z,99.90
2018-08-07T02:12:48.921Z,99.90
2018-08-07T02:15:17.846Z,99.90
2018-08-07T02:17:46.708Z,99.90
2018-08-07T02:20:16.493Z,99.90
2018-08-07T02:22:45.910Z,99.90
2018-08-07T02:25:21.280Z,99.90
2018-08-07T02:27:50.165Z,99.90
2018-08-07T02:30:19.257Z,99.90
2018-08-07T02:32:48.109Z,99.90
2018-08-07T02:35:17.541Z,99.90
2018-08-07T02:37:47.198Z,99.90
2018-08-07T02:40:16.672Z,99.90
2018-08-07T02:42:45.715Z,99.90
2018-08-07T02:45:16.188Z,99.90
2018-08-07T02:47:45.492Z,99.90
2018-08-07T02:50:16.161Z,99.90
2018-08-07T02:52:45.192Z,99.90
2018-08-07T02:55:14.088Z,99.90
2018-08-07T02:57:43.599Z,99.90
2018-08-07T03:00:14.340Z,99.90
2018-08-07T03:02:43.262Z,99.90
2018-08-07T03:05:12.109Z,99.90
2018-08-07T03:07:41.059Z,99.90
2018-08-07T03:10:10.532Z,99.90
2018-08-07T03:12:39.493Z,99.90
2018-08-07T03:15:11.938Z,99.90
2018-08-07T03:17:41.094Z,99.90
2018-08-07T03:20:10.040Z,99.90
2018-08-07T03:22:38.924Z,99.90
2018-08-07T03:25:09.209Z,99.90
2018-08-07T03:27:38.060Z,99.90
2018-08-07T03:30:09.332Z,99.90
2018-08-07T03:32:38.233Z,99.90
2018-08-07T03:35:07.261Z,99.90
2018-08-07T03:37:36.788Z,99.90
2018-08-07T03:40:09.034Z,99.90
2018-08-07T03:42:38.001Z,99.90
2018-08-07T03:45:08.241Z,99.90
2018-08-07T03:47:37.187Z,99.90
2018-08-07T03:50:06.753Z,99.90
2018-08-07T03:52:35.683Z,99.90
2018-08-07T03:55:06.796Z,99.90
2018-08-07T03:57:35.837Z,99.90
2018-08-07T04:00:07.751Z,99.90
2018-08-07T04:02:36.612Z,99.90
2018-08-07T04:05:05.848Z,99.90
2018-08-07T04:07:34.975Z,99.90
2018-08-07T04:10:04.638Z,99.90
2018-08-07T04:12:33.511Z,99.90
2018-08-07T04:15:02.375Z,99.90
2018-08-07T04:17:31.324Z,99.90
2018-08-07T04:22:28.744Z,99.90
2018-08-07T04:24:57.647Z,99.90
2018-08-07T04:27:26.504Z,99.90
2018-08-07T04:29:55.365Z,99.90
2018-08-07T04:32:24.425Z,99.90
2018-08-07T04:34:53.316Z,99.90
2018-08-07T04:37:22.164Z,99.90
2018-08-07T04:39:51.052Z,99.90
2018-08-07T04:42:19.917Z,99.90
2018-08-07T04:44:48.784Z,99.90
2018-08-07T04:47:17.631Z,99.90
2018-08-07T04:49:46.505Z,99.90
2018-08-07T04:52:15.378Z,99.90
2018-08-07T04:54:44.246Z,99.90
2018-08-07T04:57:13.156Z,99.90
2018-08-07T04:59:42.001Z,99.90
2018-08-07T05:02:10.880Z,99.90
2018-08-07T05:04:39.732Z,99.90
2018-08-07T05:07:08.613Z,99.90
2018-08-07T05:09:37.515Z,99.90
2018-08-07T05:12:06.760Z,99.90
2018-08-07T05:14:35.887Z,99.90
2018-08-07T05:17:04.748Z,99.90
2018-08-07T05:19:33.597Z,99.90
2018-08-07T05:22:02.459Z,99.90
2018-08-07T05:24:31.311Z,99.90
2018-08-07T05:27:00.180Z,99.20
2018-08-07T05:29:29.055Z,98.20
2018-08-07T05:31:57.914Z,96.80
2018-08-07T05:34:26.757Z,95.80
2018-08-07T05:36:55.644Z,95.10
2018-08-07T05:39:24.517Z,94.90
2018-08-07T05:41:53.392Z,93.90
2018-08-07T05:44:22.281Z,93.40
2018-08-07T05:46:51.121Z,92.50
2018-08-07T05:49:20.002Z,91.60
2018-08-07T05:51:48.840Z,90.60
2018-08-07T05:54:17.706Z,89.30
2018-08-07T05:56:46.584Z,89.60
2018-08-07T05:59:15.521Z,88.60
2018-08-07T06:01:44.384Z,86.50
2018-08-07T06:04:13.232Z,83.90
2018-08-07T06:06:42.141Z,83.70
2018-08-07T06:09:11.000Z,85.00
2018-08-07T06:11:39.882Z,87.80
2018-08-07T06:14:08.732Z,86.80
2018-08-07T06:16:37.683Z,86.70
2018-08-07T06:19:06.570Z,84.80
2018-08-07T06:21:35.371Z,83.20
2018-08-07T06:24:04.239Z,80.70
2018-08-07T06:26:33.079Z,82.20
2018-08-07T06:29:01.962Z,80.40
2018-08-07T06:31:30.877Z,79.30
2018-08-07T06:34:00.085Z,79.40
2018-08-07T06:36:28.972Z,82.50
2018-08-07T06:38:57.798Z,81.70
2018-08-07T06:41:26.671Z,82.10
2018-08-07T06:43:55.545Z,82.20
2018-08-07T06:46:24.424Z,81.60
2018-08-07T06:48:53.748Z,80.20
2018-08-07T06:51:22.616Z,79.60
2018-08-07T06:53:51.469Z,77.90
2018-08-07T06:56:20.353Z,78.40
2018-08-07T06:58:49.222Z,79.70
2018-08-07T07:01:18.157Z,79.90
2018-08-07T07:06:15.528Z,79.10
2018-08-07T07:08:44.405Z,79.70
2018-08-07T07:11:13.249Z,79.70
2018-08-07T07:13:42.152Z,78.10
2018-08-07T07:16:11.047Z,78.00
2018-08-07T07:18:39.924Z,76.50
2018-08-07T07:21:09.022Z,74.80
2018-08-07T07:23:37.869Z,73.10
2018-08-07T07:28:35.256Z,73.70
2018-08-07T07:31:04.127Z,72.20
2018-08-07T07:33:33.116Z,72.30
2018-08-07T07:36:01.976Z,72.10
2018-08-07T07:38:30.856Z,72.00
2018-08-07T07:40:59.738Z,70.90
2018-08-07T07:43:28.672Z,68.60
2018-08-07T07:45:57.517Z,70.90
2018-08-07T07:48:26.397Z,72.00
2018-08-07T07:50:55.256Z,72.20
2018-08-07T07:53:24.108Z,73.30
2018-08-07T07:55:52.975Z,74.40
2018-08-07T07:58:21.833Z,75.30
2018-08-07T08:00:50.808Z,73.70
2018-08-07T08:03:19.745Z,72.20
2018-08-07T08:05:48.609Z,73.50
2018-08-07T08:08:17.525Z,73.10
2018-08-07T08:10:52.559Z,72.50
2018-08-07T08:13:32.844Z,73.80
2018-08-07T08:16:07.230Z,74.90
2018-08-07T08:18:48.602Z,76.40
2018-08-07T08:21:19.380Z,78.70
2018-08-07T08:23:48.209Z,79.00
2018-08-07T08:26:17.097Z,80.30
2018-08-07T08:28:45.928Z,80.40
2018-08-07T08:31:14.828Z,80.50
2018-08-07T08:33:43.695Z,81.50
2018-08-07T08:36:16.764Z,82.20
2018-08-07T08:38:56.169Z,82.50
2018-08-07T08:41:29.933Z,80.80
2018-08-07T08:43:58.824Z,80.70
2018-08-07T08:46:27.686Z,77.00
2018-08-07T08:48:56.682Z,77.20
2018-08-07T08:51:25.502Z,77.30
2018-08-07T08:53:54.386Z,75.70
2018-08-07T08:58:54.630Z,74.10
2018-08-07T09:01:23.492Z,72.10
2018-08-07T09:03:52.369Z,70.00
2018-08-07T09:06:21.303Z,66.70
2018-08-07T09:08:50.201Z,65.30
2018-08-07T09:11:19.089Z,66.50
2018-08-07T09:13:47.952Z,67.20
2018-08-07T09:16:16.818Z,69.30
2018-08-07T09:18:45.700Z,69.90
2018-08-07T09:21:14.584Z,69.60
2018-08-07T09:23:43.470Z,71.70
2018-08-07T09:26:12.453Z,71.60
2018-08-07T09:28:41.240Z,71.70
2018-08-07T09:31:10.137Z,69.20
2018-08-07T09:33:38.993Z,69.00
2018-08-07T09:36:07.869Z,69.60
2018-08-07T09:38:36.745Z,71.40
2018-08-07T09:41:05.609Z,69.40
2018-08-07T09:43:34.500Z,69.40
2018-08-07T09:46:03.360Z,70.70
2018-08-07T09:48:32.208Z,67.50
2018-08-07T09:51:01.113Z,66.60
2018-08-07T09:53:29.983Z,65.10
2018-08-07T09:55:58.833Z,68.30
2018-08-07T09:58:27.710Z,71.10
2018-08-07T10:01:02.103Z,69.20
2018-08-07T10:03:31.005Z,67.70
2018-08-07T10:05:59.897Z,67.30
2018-08-07T10:08:28.776Z,66.20
2018-08-07T10:10:57.676Z,65.10
2018-08-07T10:13:26.533Z,63.60
2018-08-07T10:15:55.385Z,64.60
2018-08-07T10:18:24.336Z,66.00
2018-08-07T10:20:53.179Z,64.80
2018-08-07T10:23:22.042Z,65.20
2018-08-07T10:25:50.888Z,66.40
2018-08-07T10:28:19.744Z,66.20
2018-08-07T10:30:48.619Z,66.60
2018-08-07T10:35:45.986Z,69.10
2018-08-07T10:40:43.428Z,70.10
2018-08-07T10:43:12.345Z,69.50
2018-08-07T10:45:41.095Z,68.10
2018-08-07T10:48:10.003Z,68.50
2018-08-07T10:50:38.893Z,68.10
2018-08-07T10:53:07.795Z,66.40
2018-08-07T10:55:36.624Z,65.70
2018-08-07T10:58:05.479Z,67.60
2018-08-07T11:00:34.729Z,67.70
2018-08-07T11:03:04.116Z,67.50
2018-08-07T11:05:32.994Z,68.60
2018-08-07T11:10:30.458Z,69.50
2018-08-07T11:12:59.367Z,70.50
2018-08-07T11:17:59.019Z,70.70
2018-08-07T11:20:27.917Z,70.30
2018-08-07T11:22:58.040Z,70.90
2018-08-07T11:25:27.891Z,70.30
2018-08-07T11:27:56.788Z,69.40
2018-08-07T11:30:26.751Z,69.40
2018-08-07T11:32:56.771Z,70.10
2018-08-07T11:35:26.053Z,68.30
2018-08-07T11:37:56.405Z,66.10
2018-08-07T11:40:25.945Z,66.80
2018-08-07T11:42:55.514Z,66.90
2018-08-07T11:45:26.112Z,67.50
2018-08-07T11:47:55.034Z,68.30
2018-08-07T11:50:25.176Z,69.40
2018-08-07T11:52:54.044Z,70.00
2018-08-07T11:55:23.705Z,70.50
2018-08-07T12:00:25.014Z,70.60
2018-08-07T12:02:53.854Z,70.40
2018-08-07T12:05:23.012Z,70.40
2018-08-07T12:07:51.914Z,70.80
2018-08-07T12:10:21.211Z,71.10
2018-08-07T12:12:50.070Z,71.60
2018-08-07T12:15:20.406Z,72.50
2018-08-07T12:17:49.409Z,72.90
2018-08-07T12:20:18.260Z,74.90
2018-08-07T12:22:47.132Z,76.10
2018-08-07T12:25:16.811Z,77.20
2018-08-07T12:27:45.832Z,79.60
2018-08-07T12:30:20.144Z,81.30
2018-08-07T12:32:49.098Z,82.10
2018-08-07T12:35:17.992Z,82.70
2018-08-07T12:37:46.865Z,82.70
2018-08-07T12:40:20.073Z,81.50
2018-08-07T12:42:49.478Z,82.30
2018-08-07T12:45:18.494Z,83.30
2018-08-07T12:47:47.963Z,83.00
2018-08-07T12:50:17.604Z,82.90
2018-08-07T12:52:46.456Z,82.70
2018-08-07T12:55:18.968Z,82.00
2018-08-07T12:57:48.137Z,81.90
2018-08-07T13:00:19.608Z,80.60
2018-08-07T13:02:48.484Z,80.30
2018-08-07T13:05:17.471Z,81.30
2018-08-07T13:07:46.348Z,82.10
2018-08-07T13:10:18.348Z,84.80
2018-08-07T13:12:47.617Z,87.70
2018-08-07T13:15:17.864Z,90.20
2018-08-07T13:17:47.166Z,90.70
2018-08-07T13:20:16.068Z,91.30
2018-08-07T13:22:45.585Z,92.60
2018-08-07T13:25:16.587Z,93.70
2018-08-07T13:27:45.476Z,94.80
2018-08-07T13:30:19.832Z,95.20
2018-08-07T13:32:48.699Z,96.60
2018-08-07T13:35:17.760Z,97.90
2018-08-07T13:37:47.935Z,99.30
2018-08-07T13:40:18.975Z,99.90
2018-08-07T13:42:47.885Z,99.90
2018-08-07T13:45:18.396Z,99.90
2018-08-07T13:47:47.266Z,99.90
2018-08-07T13:50:18.429Z,99.90
2018-08-07T13:52:47.732Z,99.90
2018-08-07T13:55:17.420Z,99.90
2018-08-07T13:57:46.893Z,99.90
2018-08-07T14:00:22.554Z,99.90
2018-08-07T14:02:52.247Z,99.90
2018-08-07T14:05:21.820Z,99.90
2018-08-07T14:07:51.580Z,99.90
2018-08-07T14:10:21.710Z,99.90
2018-08-07T14:12:50.674Z,99.80
2018-08-07T14:15:20.127Z,99.50
2018-08-07T14:17:50.140Z,99.30
2018-08-07T14:20:19.445Z,99.10
2018-08-07T14:22:48.594Z,98.80
2018-08-07T14:25:25.816Z,98.10
2018-08-07T14:27:54.838Z,98.10
2018-08-07T14:30:29.060Z,98.40
2018-08-07T14:32:59.514Z,98.60
2018-08-07T14:35:28.411Z,98.00
2018-08-07T14:37:57.293Z,97.50
2018-08-07T14:40:27.300Z,97.40
2018-08-07T14:42:56.593Z,96.60
2018-08-07T14:45:27.919Z,96.20
2018-08-07T14:47:57.358Z,95.50
2018-08-07T14:50:27.896Z,96.00
2018-08-07T14:52:56.840Z,96.20
2018-08-07T14:55:26.063Z,96.20
2018-08-07T14:57:55.133Z,96.30
2018-08-07T15:00:27.432Z,96.30
2018-08-07T15:02:56.458Z,96.40
2018-08-07T15:05:25.292Z,96.00
2018-08-07T15:07:54.157Z,96.30
2018-08-07T15:12:52.944Z,96.10
2018-08-07T15:15:25.809Z,95.10
2018-08-07T15:17:54.751Z,94.80
2018-08-07T15:20:25.330Z,94.50
2018-08-07T15:22:54.788Z,94.50
2018-08-07T15:25:24.134Z,94.20
2018-08-07T15:27:53.044Z,94.20
2018-08-07T15:30:24.123Z,94.20
2018-08-07T15:35:23.562Z,94.70
2018-08-07T15:37:52.382Z,95.00
2018-08-07T15:40:21.660Z,94.50
2018-08-07T15:42:50.565Z,94.10
2018-08-07T15:45:21.895Z,93.50
2018-08-07T15:47:50.731Z,93.00
2018-08-07T15:50:20.382Z,92.70
2018-08-07T15:52:50.604Z,92.70
2018-08-07T15:55:21.250Z,92.00
2018-08-07T15:57:50.189Z,92.00
2018-08-07T16:00:29.184Z,91.70
2018-08-07T16:03:00.546Z,91.10
2018-08-07T16:05:29.536Z,91.10
2018-08-07T16:07:58.493Z,90.80
2018-08-07T16:10:27.341Z,90.60
2018-08-07T16:12:56.237Z,90.60
2018-08-07T16:15:25.132Z,90.40
2018-08-07T16:17:54.460Z,90.90
2018-08-07T16:20:23.628Z,90.50
2018-08-07T16:22:52.489Z,90.30
2018-08-07T16:25:21.876Z,89.00
2018-08-07T16:27:51.031Z,88.00
2018-08-07T16:30:22.417Z,88.50
2018-08-07T16:32:51.255Z,89.00
2018-08-07T16:35:20.174Z,87.50
2018-08-07T16:37:49.452Z,87.50
2018-08-07T16:40:20.009Z,86.80
2018-08-07T16:42:52.413Z,84.80
2018-08-07T16:48:39.067Z,82.90
2018-08-07T16:51:36.782Z,81.60
2018-08-07T16:57:30.709Z,81.80
2018-08-07T17:00:21.715Z,87.20
2018-08-07T17:03:11.698Z,90.40
2018-08-07T17:08:50.179Z,91.80
2018-08-07T17:11:19.791Z,92.00
2018-08-07T17:16:25.544Z,91.50
2018-08-07T17:18:54.504Z,91.10
2018-08-07T17:21:23.408Z,91.30
2018-08-07T17:23:52.296Z,91.90
2018-08-07T17:26:21.230Z,92.60
2018-08-07T17:28:50.608Z,93.10
2018-08-07T17:31:20.957Z,93.60
2018-08-07T17:33:50.279Z,94.10
2018-08-07T17:36:19.153Z,94.60
2018-08-07T17:38:48.077Z,95.30
2018-08-07T17:41:17.049Z,95.90
2018-08-07T17:43:46.209Z,96.50
2018-08-07T17:46:15.117Z,97.00
2018-08-07T17:48:44.025Z,97.20
2018-08-07T17:51:12.875Z,97.40
2018-08-07T17:53:41.795Z,97.70
2018-08-07T17:56:10.664Z,98.10
2018-08-07T17:58:39.597Z,98.50
2018-08-07T18:01:08.452Z,99.00
2018-08-07T18:03:37.311Z,99.30
2018-08-07T18:06:06.853Z,99.40
2018-08-07T18:08:35.863Z,99.50
2018-08-07T18:11:04.717Z,99.80
2018-08-07T18:13:33.811Z,99.90
2018-08-07T18:16:02.680Z,99.90
2018-08-07T18:18:31.533Z,99.90
2018-08-07T18:21:00.420Z,99.90
2018-08-07T18:23:29.468Z,99.90
2018-08-07T18:26:02.832Z,99.90
2018-08-07T18:28:31.760Z,99.90
2018-08-07T18:31:00.641Z,99.90
2018-08-07T18:33:29.585Z,99.90
2018-08-07T18:35:58.426Z,99.90
2018-08-07T18:38:27.300Z,99.90
2018-08-07T18:40:56.244Z,99.90
2018-08-07T18:43:25.093Z,99.60
2018-08-07T18:45:54.056Z,98.70
2018-08-07T18:48:22.978Z,98.10
2018-08-07T18:50:51.868Z,97.70
2018-08-07T18:53:20.744Z,97.60
2018-08-07T18:58:18.293Z,97.30
2018-08-07T19:00:47.185Z,97.10
2018-08-07T19:03:16.014Z,96.40
2018-08-07T19:05:44.911Z,96.20
2018-08-07T19:08:13.787Z,95.90
2018-08-07T19:10:43.671Z,95.90
2018-08-07T19:13:12.576Z,95.60
2018-08-07T19:15:41.455Z,95.70
2018-08-07T19:18:10.317Z,96.00
2018-08-07T19:20:39.196Z,96.30
2018-08-07T19:23:08.045Z,96.30
2018-08-07T19:25:36.924Z,96.50
2018-08-07T19:28:05.880Z,96.40
2018-08-07T19:30:34.744Z,96.50
2018-08-07T19:33:03.649Z,96.30
2018-08-07T19:35:32.571Z,96.60
2018-08-07T19:38:01.466Z,97.00
2018-08-07T19:40:30.389Z,97.20
2018-08-07T19:42:59.263Z,97.40
2018-08-07T19:45:28.130Z,97.90
2018-08-07T19:47:57.120Z,98.40
2018-08-07T19:50:25.988Z,98.60
2018-08-07T19:52:54.931Z,98.70
2018-08-07T19:55:53.266Z,98.80
2018-08-07T19:58:21.348Z,99.20
2018-08-07T20:00:49.509Z,99.60
2018-08-07T20:03:17.681Z,99.80
2018-08-07T20:05:46.745Z,99.90
2018-08-07T20:08:14.911Z,99.90
2018-08-07T20:10:43.034Z,99.90
2018-08-07T20:13:12.131Z,99.90
2018-08-07T20:15:40.270Z,99.90
2018-08-07T20:18:08.399Z,99.90
2018-08-07T20:20:36.485Z,99.90
2018-08-07T20:23:06.093Z,99.90
2018-08-07T20:25:35.130Z,99.90
2018-08-07T20:28:03.277Z,99.90
2018-08-07T20:30:31.364Z,99.90
2018-08-07T20:32:59.478Z,99.90
2018-08-07T20:35:27.572Z,99.90
2018-08-07T20:37:55.678Z,99.90
2018-08-07T20:40:25.153Z,99.90
2018-08-07T20:42:54.165Z,99.90
2018-08-07T20:45:22.567Z,99.90
2018-08-07T20:47:50.778Z,99.90
2018-08-07T20:50:20.310Z,99.90
2018-08-07T20:52:48.887Z,99.90
2018-08-07T20:55:17.127Z,99.90
2018-08-07T20:57:45.267Z,99.90
2018-08-07T21:00:19.115Z,99.90
2018-08-07T21:02:47.575Z,99.90
2018-08-07T21:05:15.684Z,99.90
2018-08-07T21:07:43.852Z,99.90
2018-08-07T21:10:13.936Z,99.90
2018-08-07T21:12:42.444Z,99.90
2018-08-07T21:15:11.336Z,99.90
2018-08-07T21:17:39.480Z,99.90
2018-08-07T21:20:09.901Z,99.90
2018-08-07T21:22:38.104Z,99.90
2018-08-07T21:25:09.123Z,99.90
2018-08-07T21:27:37.208Z,99.90
2018-08-07T21:30:09.787Z,99.90
2018-08-07T21:32:37.908Z,99.90
2018-08-07T21:35:06.469Z,99.90
2018-08-07T21:37:34.513Z,99.90
2018-08-07T21:40:02.640Z,99.90
2018-08-07T21:42:30.744Z,99.90
2018-08-07T21:44:58.869Z,99.90
2018-08-07T21:47:26.972Z,99.90
2018-08-07T21:49:55.092Z,99.90
2018-08-07T21:52:23.198Z,99.90
2018-08-07T21:54:51.289Z,99.90
2018-08-07T21:57:19.402Z,99.90
2018-08-07T21:59:47.640Z,99.90
2018-08-07T22:02:15.765Z,99.90
2018-08-07T22:04:43.876Z,99.90
2018-08-07T22:07:11.965Z,99.90
2018-08-07T22:09:40.081Z,99.90
2018-08-07T22:12:08.198Z,99.90
2018-08-07T22:14:36.296Z,99.90
2018-08-07T22:17:04.781Z,99.90
2018-08-07T22:19:32.893Z,99.90
2018-08-07T22:22:01.531Z,99.90
2018-08-07T22:24:29.632Z,99.90
2018-08-07T22:26:57.788Z,99.90
2018-08-07T22:29:25.882Z,99.90
2018-08-07T22:31:53.982Z,99.90
2018-08-07T22:34:22.109Z,99.90
2018-08-07T22:36:50.243Z,99.90
2018-08-07T22:39:18.400Z,99.90
2018-08-07T22:41:46.498Z,99.90
2018-08-07T22:44:20.800Z,99.90
